Omaha, GA (31821)

4:48 PM EDT on October 21, 2014 (GMT -0400)
Lawson Army Air Field | Change Station
CLOSE
Current Station
Airport
Location: Fort Benning,
Elevation: 233 ft
Nearby Weather Stations

Elev 233 ft 32.32 °N, 84.98 °W | Updated 50 minutes ago

Clear
Clear
80 °F
Feels Like 80 °F
N
9
Wind Variable Wind from NW

Today
High -- | Low -- °F
--% Chance of Precip.
Yesterday
High -- | Low -- °F
Precip. -- in
7:47 AM 7:00 PM
Waning Crescent, 4% visible
Pressure 29.95 in
Visibility 10.0 miles
Clouds Clear
Dew Point 51 °F
Humidity 37%
Rainfall 0.01 in
Snow Depth Not available.
UV 4 out of 12
Pollen 2.70 out of 12
Air Quality Not available.
Flu Activity Sporadic
METAR KLSF 211958Z AUTO 32008KT 10SM CLR 26/11 A2994 RMK AO2 SLP140 T02640108

More Conditions Fewer Conditions

Pressure 29.95 in
Visibility 10.0 miles
Clouds Clear
Dew Point 51 °F
Humidity 37%
Rainfall 0.01 in
Snow Depth Not available.
UV 4 out of 12
Pollen 2.70 out of 12
Air Quality Not available.
Flu Activity Sporadic
METAR KLSF 211958Z AUTO 32008KT 10SM CLR 26/11 A2994 RMK AO2 SLP140 T02640108

More Conditions Fewer Conditions

10-Day Weather Forecast

Almanac

Astronomy

Oct. 21, 2014 Rise Set
Actual Time 7:47 AM EDT 7:00 PM EDT
Civil Twilight 7:22 AM EDT 7:25 PM EDT
Nautical Twilight 6:54 AM EDT 7:53 PM EDT
Astronomical Twilight 6:25 AM EDT 8:22 PM EDT
Moon 5:38 AM EDT 5:47 PM EDT
Length of Visible Light 12h 02m
Length of Day
11h 12m
Tomorrow will be 1m 50s shorter.
Waning Crescent, 4% of the Moon is Illuminated
Today
Waning Crescent
Oct 23
New
Oct 30
First Quarter
Nov 6
Full
Nov 14
Last Quarter

Today's Extremes

State Highs State Lows

Community

WunderPhotos

Upload Photos

1,763,774 photos uploaded!

WunderBlogs® & News

Nearby

Snow Depth

Station Depth Elevation
No new snow has been reported.

Earthquake Activity

City Distance Mag. Time & Date
No recent earthquake activity has been reported nearby.
Minimum magnitude displayed is 2.5.

Coastal Water Temperatures

Place Temperature
No Stations Reporting

Nearby Weather Stations